Roslyn Heights, NY

3:40 AM EDT on April 21, 2015 (GMT -0400)
Kennedy International | | Change Station
CLOSE
Current Station
Airport
Location: New York JFK,
Elevation: 23 ft
Nearby Weather Stations
Active Advisory: Dense Fog Advisory

Elev 23 ft 40.64 °N, 73.76 °W | Updated 18 minutes ago

Mostly Cloudy
Mostly Cloudy
54 °F
Feels Like 54 °F
N
8
Wind Variable Wind from NNW

Today
High -- | Low -- °F
--% Chance of Precip.
Yesterday
High -- | Low -- °F
Precip. -- in
6:07 AM 7:40 PM
Waxing Crescent, 9% visible
Pressure 29.57 in
Visibility 5.0 miles
Clouds Scattered Clouds 400 ft
Mostly Cloudy 4000 ft
Overcast 7500 ft
Dew Point 52 °F
Humidity 94%
Rainfall 0.37 in
Snow Depth Not available.
UV 0 out of 12
Pollen 1.10 out of 12
Air Quality Not available.
Flu Activity Widespread
SPECI KJFK 210722Z 33007KT 5SM -RA BR SCT004 BKN040 OVC075 12/11 A2957 RMK AO2 OCNL LTGIC DSNT E-SE CB DSNT E-SE MOV NE P0001

More Conditions Fewer Conditions

Pressure 29.57 in
Visibility 5.0 miles
Clouds Scattered Clouds 400 ft
Mostly Cloudy 4000 ft
Overcast 7500 ft
Dew Point 52 °F
Humidity 94%
Rainfall 0.37 in
Snow Depth Not available.
UV 0 out of 12
Pollen 1.10 out of 12
Air Quality Not available.
Flu Activity Widespread
SPECI KJFK 210722Z 33007KT 5SM -RA BR SCT004 BKN040 OVC075 12/11 A2957 RMK AO2 OCNL LTGIC DSNT E-SE CB DSNT E-SE MOV NE P0001

More Conditions Fewer Conditions

10-Day Weather Forecast

Almanac

Astronomy

Apr. 21, 2015 Rise Set
Actual Time
Civil Twilight
Nautical Twilight
Astronomical Twilight
Moon
Length of Visible Light
Length of Day
Tomorrow will be .
, % of the Moon is Illuminated

Today's Extremes

State Highs State Lows

Community

WunderPhotos

Upload Photos

1,815,324 photos uploaded!

WunderBlogs® & News

Nearby

Air Quality

  Air Quality AQ Index Pollutant
Not available.

Snow Depth

Station Depth Elevation

Earthquake Activity

City Distance Mag. Time & Date
Minimum magnitude displayed is 2.5.

Coastal Water Temperatures

Place Temperature

Stations

Nearby Weather Stations

Station Location Temp. Windchill Dew Point Humidity Wind Precip. Elev Updated Type
                   
Dense Fog Advisory
Statement as of 10:55 PM EDT on April 20, 2015

... Dense fog advisory remains in effect until 6 am EDT Tuesday...

* locations... coastal Connecticut and Long Island.

* Hazards... dense fog.

* Visibilities... one quarter mile or less at times.

* Timing... overnight.

Precautionary/preparedness actions...

A dense fog advisory means visibilities will frequently be
reduced to one quarter mile or less. If driving... slow down... use
your low beam headlights... and leave plenty of distance ahead of
you in case a sudden stop is needed.